Авторазборка «GUR»

GUR
Черкассы
Ярославская
+380935528156
+380679169663

Машины в разборке

Nissan 100 NX 1,6 л (Бензин) 1990-1994 2013-03-05
Alfa-Romeo 164 2,0 л (Бензин) 1987-1987 2013-03-04
Mercedes 1820 1,8 л (Дизель) 1995-2013 2013-03-05
Mazda 3 1,6 л (Бензин) 2000-2013 2013-03-05
BMW 3 3,0 л (Бензин) 1975-2010 2013-03-04
Mazda 323 1,3 л (Бензин) 1989-2013 2013-03-05
Mazda 6 1,8 л (Бензин) 2002-2013 2013-03-05
Mazda 626 1,8 л (Бензин) 1987-2013 2013-03-05
Hyundai Accent 1,3 л (Бензин) 1994-2013 2013-03-04
Honda Accord 1,6 л (Бензин) 1990-2013 2013-03-04
Nissan Almera 1,4 л (Бензин) 1995-2013 2013-03-05
Nissan Armada 5,6 л (Бензин) 2003-2013 2013-03-05
Dodge Avenger 2,0 л (Бензин) 2007-2013 2013-03-04
Chevrolet Aveo 1,4 л (Бензин) 2005-2013 2013-03-04
Citroen Berlingo I 1,8 л (Бензин) 1996-2013 2013-03-04
Citroen Berlingo II 1,6 л (Бензин) 2008-2013 2013-03-04
Kia Besta 2,2 л (Бензин) 1996-2013 2013-03-04
Nissan Bluebird 1,6 л (Дизель) 1985-1990 2013-03-05
Fiat Brava 1,2 л (Бензин) 1995-2002 2013-03-04
Fiat Bravo 1,2 л (Бензин) 1995-2013 2013-03-04
Ford C-Max 1,6 л (Бензин) 2007-2013 2013-03-04
Citroen C4 1,4 л (Бензин) 2006-2013 2013-03-04
Citroen C5 1,6 л (Бензин) 2001-2013 2013-03-04
Dodge Caliber 1,8 л (Бензин) 2006-2013 2013-03-04
Ford Capri 2,0 л (Бензин) 1978-1987 2013-03-04
Chevrolet Captiva 2,0 л (Бензин) 2006-2013 2013-03-04
Kia Carens 1,6 л (Бензин) 2000-2013 2013-03-04
Mitsubishi Carisma 1,3 л (Бензин) 1995-2006 2013-03-05
Kia Carnival 2,4 л (Бензин) 1999-2013 2013-03-04
Kia ceed 1,4 л (Бензин) 2006-2013 2013-03-04
Kia Cerato 1,5 л (Бензин) 2004-2013 2013-03-04
Honda Civic 1,2 л (Бензин) 1987-2013 2013-03-04
Geely CK 1,3 л (Бензин) 2005-2013 2013-03-04
Kia Clarus 1,8 л (Бензин) 1996-2013 2013-03-04
Mitsubishi Colt 1,1 л (Бензин) 1988-2013 2013-03-05
Hyundai Coupe 1,6 л (Бензин) 2001-2013 2013-03-04
Ford Courier 1,8 л (Бензин) 1999-2002 2013-03-04
Honda CR-V 2,0 л (Бензин) 1995-2013 2013-03-04
Mazda CX-7 2,2 л (Бензин) 2006-2013 2013-03-05
Iveco Daily 2,3 л (Дизель) 1978-2013 2013-03-04
Fiat Doblo 1,2 л (Бензин) 2001-2013 2013-03-04
Fiat Ducato 1,9 л (Дизель) 1989-2008 2013-03-04
Dacia Duster 1,6 л (Бензин) 2010-2013 2013-03-04
Mercedes E 1,8 л (Дизель) 1993-2013 2013-03-05
Mitsubishi Eclipse 2,0 л (Бензин) 1989-2013 2013-03-05
Hyundai Elantra 1,6 л (Бензин) 2000-2013 2013-03-04
Chevrolet Epica 2,0 л (Бензин) 2005-2013 2013-03-04
Ford Escort 1,3 л (Бензин) 1980-1999 2013-03-04
Daewoo Espero 1,5 л (Бензин) 1991-1999 2013-03-04
Daewoo Evanda 2,0 л (Бензин) 2002-2013 2013-03-04
Chevrolet Evanda 2,0 л (Бензин) 2005-2013 2013-03-04
Ford Explorer 4,0 л (Бензин) 1993-2012 2013-03-04
Geely FC 1,5 л (Бензин) 2005-2013 2013-03-04
Ford Fiesta 1,3 л (Бензин) 1989-2008 2013-03-04
Fiat Fiorino 1,0 л (Бензин) 1988-2007 2013-03-04
Ford Focus 1,4 л (Бензин) 1998-2013 2013-03-04
Ford Fusion 1,2 л (Бензин) 2002-2013 2013-03-04
Infiniti FX 3,0 л (Бензин) 2003-2013 2013-03-04
Mitsubishi Galant 1,6 л (Бензин) 1987-2013 2013-03-05
Ford Galaxy 1,8 л (Бензин) 1995-2013 2013-03-04
Hyundai Getz 1,1 л (Бензин) 2002-2013 2013-03-04
Mercedes GLK 2,1 л (Бензин) 2008-2013 2013-03-05
Ford Granada 1,6 л (Бензин) 1977-1985 2013-03-04
Mitsubishi Grandis 2,0 л (Бензин) 2004-2013 2013-03-05
Lexus GS 3,0 л (Бензин) 1993-2013 2013-03-04
Hyundai H-1 2,4 л (Дизель) 1997-2013 2013-03-04
Hyundai H100 2,4 л (Бензин) 1993-2013 2013-03-04
Honda HR-V 1,6 л (Бензин) 1999-2013 2013-03-04
Hyundai i10 1,1 л (Бензин) 2007-2013 2013-03-04
Hyundai i20 1,2 л (Бензин) 2008-2013 2013-03-04
Hyundai i30 1,4 л (Бензин) 2007-2013 2013-03-04
Fiat Idea 1,2 л (Бензин) 2003-2013 2013-03-04
Honda Insight 1,3 л (Бензин) 2009-2013 2013-03-04
Honda Integra 1,8 л (Бензин) 1993-2013 2013-03-04
Lexus IS 2,0 л (Бензин) 1999-2013 2013-03-04
Honda Jazz 1,2 л (Бензин) 2002-2013 2013-03-04
Nissan JUKE 1,5 л (Бензин) 2010-2013 2013-03-05
Citroen Jumper 1,9 л (Бензин) 1994-2013 2013-03-04
Citroen Jumpy 1,6 л (Бензин) 1994-2013 2013-03-04
Ford Ka 1,0 л (Бензин) 1996-2013 2013-03-04
Ford Kuga 2,0 л (Бензин) 2008-2013 2013-03-04
Mitsubishi L200 2,0 л (Дизель) 1996-2013 2013-03-05
Chevrolet Lacetti 1,4 л (Бензин) 2005-2013 2013-03-04
Mitsubishi Lancer 1,2 л (Бензин) 1988-2013 2013-03-05
Mitsubishi Lancer 1,2 л (Бензин) 1988-2013 2013-03-05
Daewoo Lanos 1,6 л (Бензин) 1997-2013 2013-03-04
Hyundai Lantra 1,5 л (Бензин) 1990-2013 2013-03-04
Daewoo Leganza 1,8 л (Бензин) 1997-2004 2013-03-04
Honda LEGEND 3,2 л (Бензин) 1991-2013 2013-03-04
Fiat Linea 1,2 л (Бензин) 2007-2013 2013-03-04
Fiat Linea 1,2 л (Бензин) 2007-2013 2013-03-04
Dacia Logan MCV 1,4 л (Бензин) 2004-2013 2013-03-04
Infiniti M35 3,5 л (Бензин) 2005-2013 2013-03-04
Infiniti M37 3,7 л (Бензин) 2011-2013 2013-03-04
Infiniti M45 4,5 л (Бензин) 2005-2013 2013-03-04
Infiniti M56 5,6 л (Бензин) 2011-2013 2013-03-04
Kia Magentis 2,0 л (Бензин) 2001-2013 2013-03-04
Fiat Marea 1,2 л (Бензин) 1996-2013 2013-03-04
Chevrolet Matiz 0,8 л (Бензин) 2000-2013 2013-03-04
Daewoo Matiz 0,8 л (Бензин) 1998-2013 2013-03-04
Hyundai Matrix 1,5 л (Бензин) 2001-2005 2013-03-04
Ford Maverick 2,0 л (Бензин) 1993-2012 2013-03-04
Nissan Maxima 2,0 л (Бензин) 1988-2013 2013-03-05
Nissan Micra 1,0 л (Бензин) 1992-2013 2013-03-05
Geely MK 1,3 л (Бензин) 2005-2013 2013-03-04
Mercedes ML 2,3 л (Бензин) 1998-2013 2013-03-05
Ford Mondeo 1,6 л (Бензин) 1993-2013 2013-03-04
Nissan Murano 3,5 л (Бензин) 2005-2013 2013-03-05
Nissan Navara 2,5 л (Бензин) 1997-2013 2013-03-05
Citroen Nemo 1,4 л (Бензин) 2008-2013 2013-03-04
Chrysler Neon 1,6 л (Бензин) 1994-2013 2013-03-04
Nissan Note 1,4 л (Бензин) 2006-2013 2013-03-05
Dacia Nova 1,4 л (Бензин) 1996-2001 2013-03-04
Daewoo Nubira 1,4 л (Бензин) 1997-2013 2013-03-04
Kia Opirus 2,7 л (Бензин) 2003-2013 2013-03-04
Ford Orion 1,3 л (Бензин) 1983-1993 2013-03-04
Mitsubishi Outlander 2,0 л (Бензин) 2003-2013 2013-03-05
Mitsubishi Pajero 2,0 л (Дизель) 1982-2013 2013-03-05
Geely Panda 1,3 л (Бензин) 2008-2013 2013-03-04
Nissan Pathfinder 2,4 л (Бензин) 1997-2013 2013-03-05
Nissan Patrol 2,7 л (Дизель) 1987-2013 2013-03-05
Kia Picanto 1,0 л (Бензин) 2004-2013 2013-03-04
Honda Pilot 3,5 л (Дизель) 2003-2008 2013-03-04
Hyundai Pony 1,3 л (Бензин) 1990-1995 2013-03-04
Kia Pregio 2,5 л (Бензин) 1995-2004 2013-03-04
Honda Prelude 2,0 л (Бензин) 1986-2000 2013-03-04
Nissan Primera 1,6 л (Бензин) 1990-2013 2013-03-05
Fiat Punto 1,1 л (Бензин) 1993-2012 2013-03-04
Infiniti Q45 4,5 л (Бензин) 2001-2013 2013-03-04
Nissan Qashqai 1,5 л (Бензин) 2007-2013 2013-03-05
Infiniti QX4 3,3 л (Бензин) 1997-2013 2013-03-04
Dodge Ram 3,7 л (Дизель) 1993-2002 2013-03-04
Kia Rio 1,3 л (Бензин) 2000-2013 2013-03-04
Mazda RX-7 1,3 л (Бензин) 1985-1985 2013-03-05
Hyundai S-coupe 1,5 л (Бензин) 1990-1996 2013-03-04
Ford S-Max 1,8 л (Бензин) 2006-2013 2013-03-04
Dacia Sandero 1,5 л (Бензин) 2008-2013 2013-03-04
Hyundai Santa Fe 2,0 л (Бензин) 2001-2013 2013-03-04
Citroen Saxo 1,4 л (Бензин) 1996-2004 2013-03-04
Ford Scorpio 1,8 л (Бензин) 1985-1998 2013-03-04
Fiat Scudo 1,6 л (Бензин) 1996-2013 2013-03-04
Kia Sephia 1,5 л (Бензин) 1993-1997 2013-03-04
Nissan Serena 2 л (Бензин) 1990-2013 2013-03-05
Honda Shuttle 2,2 л (Бензин) 1994-2002 2013-03-04
Ford Sierra 1,3 л (Бензин) 1982-2001 2013-03-04
Mitsubishi Sigma 3,0 л (Бензин) 1990-1996 2013-03-05
Nissan Skyline 2,0 л (Дизель) 1993-2013 2013-03-05
Dacia Solenza 1,4 л (Бензин) 2003-2013 2013-03-04
Hyundai Sonata 1,8 л (Бензин) 1988-2013 2013-03-04
Kia Sorento 2,2 л (Бензин) 2002-2013 2013-03-04
Mitsubishi Space Star 1,3 л (Бензин) 1998-2013 2013-03-05
Mitsubishi Space Wagon 1,8 л (Бензин) 1991-2013 2013-03-05
Kia Sportage 2,0 л (Бензин) 1994-2013 2013-03-04
Chrysler Stratus 2,0 л (Бензин) 1995-2001 2013-03-04
Nissan Sunny 1,4 л (Бензин) 1990-2000 2013-03-05
Dacia SuperNova 1,4 л (Бензин) 2000-2003 2013-03-04
Daewoo Tacuma 1,6 л (Бензин) 2000-2013 2013-03-04
Daewoo Tico 0,8 л (Бензин) 1995-2000 2013-03-04
Fiat Tipo 1,1 л (Бензин) 1987-1987 2013-03-04
Ford Transit 1,6 л (Бензин) 1985-2013 2013-03-04
Mazda Tribute 2,0 л (Бензин) 2000-2013 2013-03-05
Isuzu Trooper 2,6 л (Бензин) 1991-2013 2013-03-04
Hyundai Tucson 2,0 л (Бензин) 2004-2013 2013-03-04
Fiat Uno 0,9 л (Бензин) 1983-2000 2013-03-04
Mercedes Vito 2,0 л (Дизель) 1997-2013 2013-03-05
Chrysler Voyager III 2,4 л (Бензин) 2000-2013 2013-03-04
Citroen Xsara 1,4 л (Бензин) 1997-2005 2013-03-04